sensor_id;sensor_type;location;lat;lon;timestamp;P1;durP1;ratioP1;P2;durP2;ratioP2
24557;SDS011;12726;49.148;8.582;2024-01-27T00:00:43;9.52;;;3.35;;
24557;SDS011;12726;49.148;8.582;2024-01-27T00:03:37;4.80;;;3.42;;
24557;SDS011;12726;49.148;8.582;2024-01-27T00:06:29;9.27;;;4.45;;
24557;SDS011;12726;49.148;8.582;2024-01-27T00:09:21;8.05;;;3.85;;
24557;SDS011;12726;49.148;8.582;2024-01-27T00:12:15;6.38;;;3.58;;
24557;SDS011;12726;49.148;8.582;2024-01-27T00:15:07;9.77;;;4.15;;
24557;SDS011;12726;49.148;8.582;2024-01-27T00:17:59;13.05;;;4.13;;
24557;SDS011;12726;49.148;8.582;2024-01-27T00:23:46;10.50;;;4.18;;
24557;SDS011;12726;49.148;8.582;2024-01-27T00:26:37;9.13;;;4.47;;
24557;SDS011;12726;49.148;8.582;2024-01-27T00:29:29;4.80;;;3.60;;
24557;SDS011;12726;49.148;8.582;2024-01-27T00:32:21;9.77;;;4.30;;
24557;SDS011;12726;49.148;8.582;2024-01-27T00:35:17;7.85;;;3.92;;
24557;SDS011;12726;49.148;8.582;2024-01-27T00:38:10;10.23;;;4.40;;
24557;SDS011;12726;49.148;8.582;2024-01-27T00:41:02;5.10;;;3.63;;
24557;SDS011;12726;49.148;8.582;2024-01-27T00:43:53;5.75;;;3.47;;
24557;SDS011;12726;49.148;8.582;2024-01-27T00:46:45;6.40;;;3.90;;
24557;SDS011;12726;49.148;8.582;2024-01-27T00:49:37;7.87;;;3.57;;
24557;SDS011;12726;49.148;8.582;2024-01-27T00:52:29;8.52;;;3.90;;
24557;SDS011;12726;49.148;8.582;2024-01-27T00:55:23;6.20;;;3.92;;
24557;SDS011;12726;49.148;8.582;2024-01-27T00:58:16;8.38;;;3.80;;
24557;SDS011;12726;49.148;8.582;2024-01-27T01:01:07;5.50;;;3.55;;
24557;SDS011;12726;49.148;8.582;2024-01-27T01:03:59;7.63;;;3.97;;
24557;SDS011;12726;49.148;8.582;2024-01-27T01:06:51;7.30;;;4.00;;
24557;SDS011;12726;49.148;8.582;2024-01-27T01:09:44;5.55;;;3.75;;
24557;SDS011;12726;49.148;8.582;2024-01-27T01:12:37;6.93;;;4.07;;
24557;SDS011;12726;49.148;8.582;2024-01-27T01:15:29;7.30;;;3.42;;
24557;SDS011;12726;49.148;8.582;2024-01-27T01:18:21;7.13;;;3.88;;
24557;SDS011;12726;49.148;8.582;2024-01-27T01:21:12;7.18;;;3.70;;
24557;SDS011;12726;49.148;8.582;2024-01-27T01:24:04;5.83;;;3.53;;
24557;SDS011;12726;49.148;8.582;2024-01-27T01:26:56;6.13;;;3.83;;
24557;SDS011;12726;49.148;8.582;2024-01-27T01:29:50;6.60;;;3.83;;
24557;SDS011;12726;49.148;8.582;2024-01-27T01:32:45;5.50;;;3.25;;
24557;SDS011;12726;49.148;8.582;2024-01-27T01:35:36;5.93;;;3.78;;
24557;SDS011;12726;49.148;8.582;2024-01-27T01:38:28;6.03;;;3.90;;
24557;SDS011;12726;49.148;8.582;2024-01-27T01:41:21;7.57;;;4.15;;
24557;SDS011;12726;49.148;8.582;2024-01-27T01:44:12;11.55;;;4.25;;
24557;SDS011;12726;49.148;8.582;2024-01-27T01:47:06;5.85;;;3.65;;
24557;SDS011;12726;49.148;8.582;2024-01-27T01:50:00;6.55;;;4.07;;
24557;SDS011;12726;49.148;8.582;2024-01-27T01:52:52;7.43;;;4.10;;
24557;SDS011;12726;49.148;8.582;2024-01-27T01:55:45;6.65;;;4.03;;
24557;SDS011;12726;49.148;8.582;2024-01-27T01:58:36;8.10;;;4.25;;
24557;SDS011;12726;49.148;8.582;2024-01-27T02:01:29;5.57;;;3.65;;
24557;SDS011;12726;49.148;8.582;2024-01-27T02:04:22;9.57;;;4.07;;
24557;SDS011;12726;49.148;8.582;2024-01-27T02:07:14;5.75;;;3.60;;
24557;SDS011;12726;49.148;8.582;2024-01-27T02:10:06;8.80;;;4.57;;
24557;SDS011;12726;49.148;8.582;2024-01-27T02:13:04;8.57;;;5.00;;
24557;SDS011;12726;49.148;8.582;2024-01-27T02:16:06;7.38;;;4.22;;
24557;SDS011;12726;49.148;8.582;2024-01-27T02:18:59;8.90;;;5.15;;
24557;SDS011;12726;49.148;8.582;2024-01-27T02:21:52;9.82;;;4.20;;
24557;SDS011;12726;49.148;8.582;2024-01-27T02:24:45;8.48;;;4.40;;
24557;SDS011;12726;49.148;8.582;2024-01-27T02:27:37;11.70;;;5.10;;
24557;SDS011;12726;49.148;8.582;2024-01-27T02:30:30;7.35;;;4.30;;
24557;SDS011;12726;49.148;8.582;2024-01-27T02:33:22;9.27;;;4.40;;
24557;SDS011;12726;49.148;8.582;2024-01-27T02:36:13;5.10;;;3.38;;
24557;SDS011;12726;49.148;8.582;2024-01-27T02:39:05;7.88;;;4.68;;
24557;SDS011;12726;49.148;8.582;2024-01-27T02:41:59;8.23;;;4.28;;
24557;SDS011;12726;49.148;8.582;2024-01-27T02:44:50;6.55;;;3.63;;
24557;SDS011;12726;49.148;8.582;2024-01-27T02:47:42;6.93;;;3.83;;
24557;SDS011;12726;49.148;8.582;2024-01-27T02:50:34;5.18;;;3.72;;
24557;SDS011;12726;49.148;8.582;2024-01-27T02:53:26;5.22;;;3.60;;
24557;SDS011;12726;49.148;8.582;2024-01-27T02:56:17;7.90;;;3.63;;
24557;SDS011;12726;49.148;8.582;2024-01-27T02:59:12;6.18;;;4.22;;
24557;SDS011;12726;49.148;8.582;2024-01-27T03:02:03;8.82;;;4.80;;
24557;SDS011;12726;49.148;8.582;2024-01-27T03:04:56;9.40;;;5.05;;
24557;SDS011;12726;49.148;8.582;2024-01-27T03:07:48;5.70;;;4.25;;
24557;SDS011;12726;49.148;8.582;2024-01-27T03:10:39;8.05;;;4.20;;
24557;SDS011;12726;49.148;8.582;2024-01-27T03:13:32;8.35;;;4.30;;
24557;SDS011;12726;49.148;8.582;2024-01-27T03:16:25;9.07;;;4.15;;
24557;SDS011;12726;49.148;8.582;2024-01-27T03:19:17;5.38;;;3.83;;
24557;SDS011;12726;49.148;8.582;2024-01-27T03:22:09;5.30;;;3.33;;
24557;SDS011;12726;49.148;8.582;2024-01-27T03:25:01;6.80;;;4.30;;
24557;SDS011;12726;49.148;8.582;2024-01-27T03:27:53;4.50;;;3.97;;
24557;SDS011;12726;49.148;8.582;2024-01-27T03:30:45;5.90;;;4.33;;
24557;SDS011;12726;49.148;8.582;2024-01-27T03:33:38;8.73;;;3.67;;
24557;SDS011;12726;49.148;8.582;2024-01-27T03:36:30;7.50;;;3.92;;
24557;SDS011;12726;49.148;8.582;2024-01-27T03:39:22;6.68;;;4.30;;
24557;SDS011;12726;49.148;8.582;2024-01-27T03:42:14;7.85;;;4.95;;
24557;SDS011;12726;49.148;8.582;2024-01-27T03:45:06;10.32;;;4.85;;
24557;SDS011;12726;49.148;8.582;2024-01-27T03:47:58;7.07;;;4.07;;
24557;SDS011;12726;49.148;8.582;2024-01-27T03:50:51;9.20;;;4.85;;
24557;SDS011;12726;49.148;8.582;2024-01-27T03:56:36;5.80;;;3.72;;
24557;SDS011;12726;49.148;8.582;2024-01-27T03:59:28;7.85;;;4.70;;
24557;SDS011;12726;49.148;8.582;2024-01-27T04:02:20;8.93;;;4.40;;
24557;SDS011;12726;49.148;8.582;2024-01-27T04:05:12;6.90;;;4.67;;
24557;SDS011;12726;49.148;8.582;2024-01-27T04:08:06;7.15;;;4.13;;
24557;SDS011;12726;49.148;8.582;2024-01-27T04:10:58;6.60;;;3.95;;
24557;SDS011;12726;49.148;8.582;2024-01-27T04:13:50;7.20;;;3.73;;
24557;SDS011;12726;49.148;8.582;2024-01-27T04:16:42;8.65;;;4.43;;
24557;SDS011;12726;49.148;8.582;2024-01-27T04:19:34;7.18;;;4.10;;
24557;SDS011;12726;49.148;8.582;2024-01-27T04:22:26;7.13;;;4.45;;
24557;SDS011;12726;49.148;8.582;2024-01-27T04:25:19;7.25;;;4.20;;
24557;SDS011;12726;49.148;8.582;2024-01-27T04:28:11;9.98;;;4.38;;
24557;SDS011;12726;49.148;8.582;2024-01-27T04:31:03;10.35;;;5.07;;
24557;SDS011;12726;49.148;8.582;2024-01-27T04:33:55;8.10;;;4.40;;
24557;SDS011;12726;49.148;8.582;2024-01-27T04:36:47;7.95;;;4.30;;
24557;SDS011;12726;49.148;8.582;2024-01-27T04:39:39;7.05;;;4.43;;
24557;SDS011;12726;49.148;8.582;2024-01-27T04:42:33;6.57;;;4.40;;
24557;SDS011;12726;49.148;8.582;2024-01-27T04:45:25;6.07;;;3.88;;
24557;SDS011;12726;49.148;8.582;2024-01-27T04:48:17;10.27;;;4.30;;
24557;SDS011;12726;49.148;8.582;2024-01-27T04:51:09;9.45;;;4.18;;
24557;SDS011;12726;49.148;8.582;2024-01-27T04:54:00;8.27;;;3.88;;
24557;SDS011;12726;49.148;8.582;2024-01-27T04:56:52;8.40;;;4.30;;
24557;SDS011;12726;49.148;8.582;2024-01-27T04:59:45;8.10;;;3.90;;
24557;SDS011;12726;49.148;8.582;2024-01-27T05:02:38;7.15;;;3.88;;
24557;SDS011;12726;49.148;8.582;2024-01-27T05:08:21;11.50;;;4.28;;
24557;SDS011;12726;49.148;8.582;2024-01-27T05:11:13;8.37;;;4.30;;
24557;SDS011;12726;49.148;8.582;2024-01-27T05:14:05;5.97;;;3.72;;
24557;SDS011;12726;49.148;8.582;2024-01-27T05:16:58;7.77;;;3.53;;
24557;SDS011;12726;49.148;8.582;2024-01-27T05:19:50;8.43;;;3.80;;
24557;SDS011;12726;49.148;8.582;2024-01-27T05:22:42;13.48;;;4.57;;
24557;SDS011;12726;49.148;8.582;2024-01-27T05:25:34;6.32;;;3.80;;
24557;SDS011;12726;49.148;8.582;2024-01-27T05:28:26;10.40;;;3.72;;
24557;SDS011;12726;49.148;8.582;2024-01-27T05:31:18;6.38;;;3.42;;
24557;SDS011;12726;49.148;8.582;2024-01-27T05:34:11;5.97;;;3.70;;
24557;SDS011;12726;49.148;8.582;2024-01-27T05:37:03;8.70;;;4.15;;
24557;SDS011;12726;49.148;8.582;2024-01-27T05:39:55;6.20;;;3.92;;
24557;SDS011;12726;49.148;8.582;2024-01-27T05:42:47;6.60;;;3.55;;
24557;SDS011;12726;49.148;8.582;2024-01-27T05:45:39;12.85;;;4.50;;
24557;SDS011;12726;49.148;8.582;2024-01-27T05:48:31;10.03;;;4.80;;
24557;SDS011;12726;49.148;8.582;2024-01-27T05:51:24;8.55;;;4.15;;
24557;SDS011;12726;49.148;8.582;2024-01-27T05:57:07;7.40;;;3.90;;
24557;SDS011;12726;49.148;8.582;2024-01-27T06:00:03;7.45;;;4.28;;
24557;SDS011;12726;49.148;8.582;2024-01-27T06:05:47;7.78;;;4.50;;
24557;SDS011;12726;49.148;8.582;2024-01-27T06:08:40;5.97;;;3.97;;
24557;SDS011;12726;49.148;8.582;2024-01-27T06:11:32;5.70;;;4.00;;
24557;SDS011;12726;49.148;8.582;2024-01-27T06:17:17;6.90;;;4.18;;
24557;SDS011;12726;49.148;8.582;2024-01-27T06:20:09;7.13;;;3.85;;
24557;SDS011;12726;49.148;8.582;2024-01-27T06:25:55;6.57;;;3.60;;
24557;SDS011;12726;49.148;8.582;2024-01-27T06:28:47;7.25;;;4.22;;
24557;SDS011;12726;49.148;8.582;2024-01-27T06:31:39;7.45;;;4.15;;
24557;SDS011;12726;49.148;8.582;2024-01-27T06:34:31;6.65;;;4.40;;
24557;SDS011;12726;49.148;8.582;2024-01-27T06:37:23;7.43;;;4.20;;
24557;SDS011;12726;49.148;8.582;2024-01-27T06:40:15;9.23;;;4.75;;
24557;SDS011;12726;49.148;8.582;2024-01-27T06:43:09;6.68;;;4.75;;
24557;SDS011;12726;49.148;8.582;2024-01-27T06:46:03;6.85;;;3.95;;
24557;SDS011;12726;49.148;8.582;2024-01-27T06:48:55;8.40;;;4.57;;
24557;SDS011;12726;49.148;8.582;2024-01-27T06:51:47;8.50;;;4.18;;
24557;SDS011;12726;49.148;8.582;2024-01-27T06:54:39;8.65;;;5.05;;
24557;SDS011;12726;49.148;8.582;2024-01-27T06:57:34;8.98;;;4.18;;
24557;SDS011;12726;49.148;8.582;2024-01-27T07:00:28;9.15;;;4.82;;
24557;SDS011;12726;49.148;8.582;2024-01-27T07:03:19;8.85;;;4.93;;
24557;SDS011;12726;49.148;8.582;2024-01-27T07:06:11;7.57;;;5.15;;
24557;SDS011;12726;49.148;8.582;2024-01-27T07:09:03;8.52;;;4.90;;
24557;SDS011;12726;49.148;8.582;2024-01-27T07:11:54;7.88;;;4.38;;
24557;SDS011;12726;49.148;8.582;2024-01-27T07:14:46;11.98;;;6.03;;
24557;SDS011;12726;49.148;8.582;2024-01-27T09:39:44;7.32;;;4.20;;
24557;SDS011;12726;49.148;8.582;2024-01-27T09:42:29;8.93;;;5.22;;
24557;SDS011;12726;49.148;8.582;2024-01-27T09:45:17;9.82;;;5.00;;
24557;SDS011;12726;49.148;8.582;2024-01-27T09:48:04;12.18;;;5.82;;
24557;SDS011;12726;49.148;8.582;2024-01-27T09:50:52;10.95;;;5.10;;
24557;SDS011;12726;49.148;8.582;2024-01-27T09:53:41;8.95;;;4.53;;
24557;SDS011;12726;49.148;8.582;2024-01-27T09:56:26;9.63;;;4.47;;
24557;SDS011;12726;49.148;8.582;2024-01-27T09:59:12;12.32;;;6.18;;
24557;SDS011;12726;49.148;8.582;2024-01-27T10:02:02;16.33;;;8.23;;
24557;SDS011;12726;49.148;8.582;2024-01-27T10:04:53;10.68;;;4.72;;
24557;SDS011;12726;49.148;8.582;2024-01-27T10:07:39;7.20;;;3.97;;
24557;SDS011;12726;49.148;8.582;2024-01-27T10:10:26;7.15;;;3.67;;
24557;SDS011;12726;49.148;8.582;2024-01-27T10:13:11;6.25;;;3.00;;
24557;SDS011;12726;49.148;8.582;2024-01-27T10:15:59;5.93;;;2.38;;
24557;SDS011;12726;49.148;8.582;2024-01-27T10:18:45;7.95;;;2.67;;
24557;SDS011;12726;49.148;8.582;2024-01-27T10:21:31;4.57;;;2.42;;
24557;SDS011;12726;49.148;8.582;2024-01-27T10:24:17;3.55;;;1.98;;
24557;SDS011;12726;49.148;8.582;2024-01-27T10:27:04;5.93;;;2.90;;
24557;SDS011;12726;49.148;8.582;2024-01-27T10:29:52;7.70;;;2.88;;
24557;SDS011;12726;49.148;8.582;2024-01-27T10:32:39;7.00;;;2.50;;
24557;SDS011;12726;49.148;8.582;2024-01-27T10:35:24;5.82;;;2.47;;
24557;SDS011;12726;49.148;8.582;2024-01-27T10:38:09;6.32;;;3.40;;
24557;SDS011;12726;49.148;8.582;2024-01-27T10:40:55;9.65;;;3.92;;
24557;SDS011;12726;49.148;8.582;2024-01-27T10:43:42;4.72;;;3.22;;
24557;SDS011;12726;49.148;8.582;2024-01-27T10:46:28;5.40;;;2.85;;
24557;SDS011;12726;49.148;8.582;2024-01-27T10:49:14;6.63;;;2.45;;
24557;SDS011;12726;49.148;8.582;2024-01-27T10:52:01;5.47;;;2.55;;
24557;SDS011;12726;49.148;8.582;2024-01-27T10:54:57;8.27;;;3.58;;
24557;SDS011;12726;49.148;8.582;2024-01-27T10:57:44;6.55;;;2.50;;
24557;SDS011;12726;49.148;8.582;2024-01-27T11:00:33;6.47;;;2.75;;
24557;SDS011;12726;49.148;8.582;2024-01-27T11:03:19;6.93;;;2.40;;
24557;SDS011;12726;49.148;8.582;2024-01-27T11:06:07;6.47;;;2.83;;
24557;SDS011;12726;49.148;8.582;2024-01-27T11:08:53;9.25;;;3.05;;
24557;SDS011;12726;49.148;8.582;2024-01-27T11:11:40;4.72;;;2.97;;
24557;SDS011;12726;49.148;8.582;2024-01-27T11:14:26;5.00;;;3.13;;
24557;SDS011;12726;49.148;8.582;2024-01-27T11:17:13;7.05;;;3.40;;
24557;SDS011;12726;49.148;8.582;2024-01-27T11:19:58;7.25;;;3.42;;
24557;SDS011;12726;49.148;8.582;2024-01-27T11:22:45;11.00;;;4.03;;
24557;SDS011;12726;49.148;8.582;2024-01-27T11:25:30;5.78;;;3.15;;
24557;SDS011;12726;49.148;8.582;2024-01-27T11:28:16;6.00;;;2.70;;
24557;SDS011;12726;49.148;8.582;2024-01-27T11:31:03;8.48;;;2.95;;
24557;SDS011;12726;49.148;8.582;2024-01-27T11:33:56;7.78;;;3.20;;
24557;SDS011;12726;49.148;8.582;2024-01-27T11:36:42;7.82;;;3.40;;
24557;SDS011;12726;49.148;8.582;2024-01-27T11:39:29;6.05;;;2.60;;
24557;SDS011;12726;49.148;8.582;2024-01-27T11:42:15;7.38;;;2.33;;
24557;SDS011;12726;49.148;8.582;2024-01-27T11:45:01;7.47;;;2.30;;
24557;SDS011;12726;49.148;8.582;2024-01-27T11:47:48;6.65;;;1.95;;
24557;SDS011;12726;49.148;8.582;2024-01-27T11:50:38;9.57;;;2.30;;
24557;SDS011;12726;49.148;8.582;2024-01-27T11:53:23;6.97;;;2.35;;
24557;SDS011;12726;49.148;8.582;2024-01-27T11:56:08;11.55;;;3.65;;
24557;SDS011;12726;49.148;8.582;2024-01-27T11:58:54;7.10;;;2.13;;
24557;SDS011;12726;49.148;8.582;2024-01-27T12:01:40;6.22;;;2.42;;
24557;SDS011;12726;49.148;8.582;2024-01-27T12:04:26;6.63;;;1.98;;
24557;SDS011;12726;49.148;8.582;2024-01-27T12:07:12;7.30;;;2.00;;
24557;SDS011;12726;49.148;8.582;2024-01-27T12:09:58;8.73;;;1.95;;
24557;SDS011;12726;49.148;8.582;2024-01-27T12:12:44;6.07;;;2.05;;
24557;SDS011;12726;49.148;8.582;2024-01-27T12:15:29;5.05;;;1.70;;
24557;SDS011;12726;49.148;8.582;2024-01-27T12:18:15;6.17;;;1.47;;
24557;SDS011;12726;49.148;8.582;2024-01-27T12:21:02;8.40;;;2.05;;
24557;SDS011;12726;49.148;8.582;2024-01-27T12:23:53;10.55;;;2.15;;
24557;SDS011;12726;49.148;8.582;2024-01-27T12:26:39;6.55;;;1.92;;
24557;SDS011;12726;49.148;8.582;2024-01-27T12:29:25;5.43;;;1.65;;
24557;SDS011;12726;49.148;8.582;2024-01-27T12:32:12;7.28;;;2.03;;
24557;SDS011;12726;49.148;8.582;2024-01-27T12:34:57;6.80;;;1.83;;
24557;SDS011;12726;49.148;8.582;2024-01-27T12:37:43;8.27;;;1.92;;
24557;SDS011;12726;49.148;8.582;2024-01-27T12:40:31;5.85;;;1.65;;
24557;SDS011;12726;49.148;8.582;2024-01-27T12:43:16;5.20;;;1.70;;
24557;SDS011;12726;49.148;8.582;2024-01-27T12:46:02;4.85;;;1.88;;
24557;SDS011;12726;49.148;8.582;2024-01-27T12:48:47;7.55;;;2.20;;
24557;SDS011;12726;49.148;8.582;2024-01-27T12:51:32;5.20;;;1.63;;
24557;SDS011;12726;49.148;8.582;2024-01-27T12:54:18;5.63;;;1.63;;
24557;SDS011;12726;49.148;8.582;2024-01-27T12:57:05;7.22;;;1.83;;
24557;SDS011;12726;49.148;8.582;2024-01-27T12:59:50;6.50;;;2.00;;
24557;SDS011;12726;49.148;8.582;2024-01-27T13:02:36;5.85;;;1.60;;
24557;SDS011;12726;49.148;8.582;2024-01-27T13:05:21;6.18;;;2.53;;
24557;SDS011;12726;49.148;8.582;2024-01-27T13:08:10;4.28;;;1.95;;
24557;SDS011;12726;49.148;8.582;2024-01-27T13:10:55;7.15;;;2.53;;
24557;SDS011;12726;49.148;8.582;2024-01-27T13:13:42;5.43;;;1.90;;
24557;SDS011;12726;49.148;8.582;2024-01-27T13:16:28;7.13;;;2.25;;
24557;SDS011;12726;49.148;8.582;2024-01-27T13:19:13;4.65;;;1.90;;
24557;SDS011;12726;49.148;8.582;2024-01-27T13:21:58;7.80;;;2.25;;
24557;SDS011;12726;49.148;8.582;2024-01-27T13:24:44;7.53;;;2.45;;
24557;SDS011;12726;49.148;8.582;2024-01-27T13:27:29;9.57;;;2.60;;
24557;SDS011;12726;49.148;8.582;2024-01-27T13:30:17;6.28;;;2.40;;
24557;SDS011;12726;49.148;8.582;2024-01-27T13:33:02;6.90;;;1.70;;
24557;SDS011;12726;49.148;8.582;2024-01-27T13:35:48;9.40;;;1.80;;
24557;SDS011;12726;49.148;8.582;2024-01-27T13:38:33;7.50;;;2.15;;
24557;SDS011;12726;49.148;8.582;2024-01-27T13:41:19;5.00;;;2.40;;
24557;SDS011;12726;49.148;8.582;2024-01-27T13:44:04;7.97;;;2.17;;
24557;SDS011;12726;49.148;8.582;2024-01-27T13:46:54;6.50;;;2.15;;
24557;SDS011;12726;49.148;8.582;2024-01-27T13:49:44;6.45;;;1.85;;
24557;SDS011;12726;49.148;8.582;2024-01-27T13:52:29;6.00;;;1.67;;
24557;SDS011;12726;49.148;8.582;2024-01-27T13:55:15;2.88;;;1.40;;
24557;SDS011;12726;49.148;8.582;2024-01-27T13:58:00;4.13;;;1.50;;
24557;SDS011;12726;49.148;8.582;2024-01-27T14:00:45;4.28;;;1.48;;
24557;SDS011;12726;49.148;8.582;2024-01-27T14:03:32;6.15;;;1.92;;
24557;SDS011;12726;49.148;8.582;2024-01-27T14:06:17;6.00;;;1.67;;
24557;SDS011;12726;49.148;8.582;2024-01-27T14:09:02;6.32;;;1.50;;
24557;SDS011;12726;49.148;8.582;2024-01-27T14:11:47;4.65;;;1.98;;
24557;SDS011;12726;49.148;8.582;2024-01-27T14:14:33;5.80;;;1.48;;
24557;SDS011;12726;49.148;8.582;2024-01-27T14:17:22;5.47;;;1.80;;
24557;SDS011;12726;49.148;8.582;2024-01-27T14:20:10;5.95;;;1.70;;
24557;SDS011;12726;49.148;8.582;2024-01-27T14:22:56;6.18;;;1.65;;
24557;SDS011;12726;49.148;8.582;2024-01-27T14:25:41;8.63;;;1.77;;
24557;SDS011;12726;49.148;8.582;2024-01-27T14:28:27;4.55;;;1.98;;
24557;SDS011;12726;49.148;8.582;2024-01-27T14:31:12;5.65;;;1.85;;
24557;SDS011;12726;49.148;8.582;2024-01-27T14:33:57;8.63;;;2.55;;
24557;SDS011;12726;49.148;8.582;2024-01-27T14:36:44;6.97;;;1.70;;
24557;SDS011;12726;49.148;8.582;2024-01-27T14:39:29;5.97;;;2.25;;
24557;SDS011;12726;49.148;8.582;2024-01-27T14:42:16;7.97;;;2.15;;
24557;SDS011;12726;49.148;8.582;2024-01-27T14:45:02;7.00;;;1.88;;
24557;SDS011;12726;49.148;8.582;2024-01-27T14:47:48;7.55;;;2.00;;
24557;SDS011;12726;49.148;8.582;2024-01-27T14:50:33;6.03;;;2.00;;
24557;SDS011;12726;49.148;8.582;2024-01-27T14:53:20;3.85;;;2.03;;
24557;SDS011;12726;49.148;8.582;2024-01-27T14:56:05;8.15;;;2.10;;
24557;SDS011;12726;49.148;8.582;2024-01-27T14:58:51;8.52;;;2.58;;
24557;SDS011;12726;49.148;8.582;2024-01-27T15:01:37;7.07;;;2.08;;
24557;SDS011;12726;49.148;8.582;2024-01-27T15:04:22;11.70;;;3.33;;
24557;SDS011;12726;49.148;8.582;2024-01-27T15:07:09;7.95;;;2.83;;
24557;SDS011;12726;49.148;8.582;2024-01-27T15:10:00;7.05;;;2.42;;
24557;SDS011;12726;49.148;8.582;2024-01-27T15:12:45;8.20;;;2.33;;
24557;SDS011;12726;49.148;8.582;2024-01-27T15:15:31;10.98;;;3.20;;
24557;SDS011;12726;49.148;8.582;2024-01-27T15:18:16;9.45;;;2.08;;
24557;SDS011;12726;49.148;8.582;2024-01-27T15:21:01;9.18;;;2.60;;
24557;SDS011;12726;49.148;8.582;2024-01-27T15:23:47;5.38;;;2.35;;
24557;SDS011;12726;49.148;8.582;2024-01-27T15:26:34;8.45;;;2.90;;
24557;SDS011;12726;49.148;8.582;2024-01-27T15:29:20;7.65;;;2.35;;
24557;SDS011;12726;49.148;8.582;2024-01-27T15:32:05;9.55;;;3.30;;
24557;SDS011;12726;49.148;8.582;2024-01-27T15:34:52;6.93;;;2.60;;
24557;SDS011;12726;49.148;8.582;2024-01-27T15:37:37;5.97;;;2.85;;
24557;SDS011;12726;49.148;8.582;2024-01-27T15:40:23;7.22;;;2.60;;
24557;SDS011;12726;49.148;8.582;2024-01-27T15:43:11;6.45;;;2.67;;
24557;SDS011;12726;49.148;8.582;2024-01-27T15:45:56;9.43;;;2.83;;
24557;SDS011;12726;49.148;8.582;2024-01-27T15:48:47;7.43;;;2.65;;
24557;SDS011;12726;49.148;8.582;2024-01-27T15:51:32;12.85;;;3.17;;
24557;SDS011;12726;49.148;8.582;2024-01-27T15:54:19;5.85;;;2.95;;
24557;SDS011;12726;49.148;8.582;2024-01-27T15:57:04;5.95;;;3.05;;
24557;SDS011;12726;49.148;8.582;2024-01-27T15:59:51;9.20;;;3.97;;
24557;SDS011;12726;49.148;8.582;2024-01-27T16:02:36;10.00;;;4.22;;
24557;SDS011;12726;49.148;8.582;2024-01-27T16:05:22;7.78;;;3.80;;
24557;SDS011;12726;49.148;8.582;2024-01-27T16:08:07;6.18;;;3.50;;
24557;SDS011;12726;49.148;8.582;2024-01-27T16:10:54;8.63;;;4.45;;
24557;SDS011;12726;49.148;8.582;2024-01-27T16:13:40;10.70;;;4.80;;
24557;SDS011;12726;49.148;8.582;2024-01-27T16:16:26;10.02;;;3.70;;
24557;SDS011;12726;49.148;8.582;2024-01-27T16:19:12;9.80;;;4.20;;
24557;SDS011;12726;49.148;8.582;2024-01-27T16:21:58;11.60;;;4.15;;
24557;SDS011;12726;49.148;8.582;2024-01-27T16:24:43;10.35;;;3.83;;
24557;SDS011;12726;49.148;8.582;2024-01-27T16:27:29;11.93;;;4.55;;
24557;SDS011;12726;49.148;8.582;2024-01-27T16:30:14;16.23;;;4.85;;
24557;SDS011;12726;49.148;8.582;2024-01-27T16:33:01;18.75;;;6.32;;
24557;SDS011;12726;49.148;8.582;2024-01-27T16:35:46;17.95;;;8.27;;
24557;SDS011;12726;49.148;8.582;2024-01-27T16:38:32;17.23;;;8.88;;
24557;SDS011;12726;49.148;8.582;2024-01-27T16:41:18;16.88;;;7.47;;
24557;SDS011;12726;49.148;8.582;2024-01-27T16:44:03;14.93;;;6.85;;
24557;SDS011;12726;49.148;8.582;2024-01-27T16:46:49;15.15;;;6.20;;
24557;SDS011;12726;49.148;8.582;2024-01-27T16:49:35;14.98;;;6.07;;
24557;SDS011;12726;49.148;8.582;2024-01-27T16:52:21;10.73;;;4.32;;
24557;SDS011;12726;49.148;8.582;2024-01-27T16:55:08;14.10;;;5.03;;
24557;SDS011;12726;49.148;8.582;2024-01-27T16:57:53;10.52;;;3.97;;
24557;SDS011;12726;49.148;8.582;2024-01-27T17:00:39;11.00;;;4.35;;
24557;SDS011;12726;49.148;8.582;2024-01-27T17:03:24;10.98;;;4.97;;
24557;SDS011;12726;49.148;8.582;2024-01-27T17:06:11;14.52;;;7.28;;
24557;SDS011;12726;49.148;8.582;2024-01-27T17:08:56;14.82;;;7.03;;
24557;SDS011;12726;49.148;8.582;2024-01-27T17:11:42;14.63;;;7.10;;
24557;SDS011;12726;49.148;8.582;2024-01-27T17:14:27;13.75;;;6.63;;
24557;SDS011;12726;49.148;8.582;2024-01-27T17:17:12;15.80;;;5.68;;
24557;SDS011;12726;49.148;8.582;2024-01-27T17:19:58;20.83;;;9.40;;
24557;SDS011;12726;49.148;8.582;2024-01-27T17:22:45;24.00;;;10.73;;
24557;SDS011;12726;49.148;8.582;2024-01-27T17:25:30;19.02;;;9.45;;
24557;SDS011;12726;49.148;8.582;2024-01-27T17:28:15;18.38;;;9.68;;
24557;SDS011;12726;49.148;8.582;2024-01-27T17:31:00;20.27;;;8.90;;
24557;SDS011;12726;49.148;8.582;2024-01-27T17:33:47;13.77;;;8.00;;
24557;SDS011;12726;49.148;8.582;2024-01-27T17:36:32;14.23;;;6.68;;
24557;SDS011;12726;49.148;8.582;2024-01-27T17:39:19;14.95;;;7.78;;
24557;SDS011;12726;49.148;8.582;2024-01-27T17:42:05;14.30;;;7.70;;
24557;SDS011;12726;49.148;8.582;2024-01-27T17:44:50;15.80;;;7.22;;
24557;SDS011;12726;49.148;8.582;2024-01-27T17:47:36;15.18;;;6.43;;
24557;SDS011;12726;49.148;8.582;2024-01-27T17:50:22;15.52;;;6.10;;
24557;SDS011;12726;49.148;8.582;2024-01-27T17:53:07;16.20;;;5.85;;
24557;SDS011;12726;49.148;8.582;2024-01-27T17:55:55;16.92;;;6.55;;
24557;SDS011;12726;49.148;8.582;2024-01-27T17:58:40;13.57;;;5.82;;
24557;SDS011;12726;49.148;8.582;2024-01-27T18:01:26;13.75;;;5.63;;
24557;SDS011;12726;49.148;8.582;2024-01-27T18:04:11;11.15;;;5.28;;
24557;SDS011;12726;49.148;8.582;2024-01-27T18:06:58;10.50;;;4.57;;
24557;SDS011;12726;49.148;8.582;2024-01-27T18:09:43;12.82;;;4.40;;
24557;SDS011;12726;49.148;8.582;2024-01-27T18:12:30;8.52;;;4.32;;
24557;SDS011;12726;49.148;8.582;2024-01-27T18:15:15;10.05;;;4.25;;
24557;SDS011;12726;49.148;8.582;2024-01-27T18:18:01;6.78;;;3.95;;
24557;SDS011;12726;49.148;8.582;2024-01-27T18:20:46;10.70;;;4.60;;
24557;SDS011;12726;49.148;8.582;2024-01-27T18:23:31;11.68;;;5.00;;
24557;SDS011;12726;49.148;8.582;2024-01-27T18:26:17;8.65;;;4.63;;
24557;SDS011;12726;49.148;8.582;2024-01-27T18:29:05;10.93;;;5.10;;
24557;SDS011;12726;49.148;8.582;2024-01-27T18:31:51;10.70;;;4.90;;
24557;SDS011;12726;49.148;8.582;2024-01-27T18:34:37;7.78;;;4.75;;
24557;SDS011;12726;49.148;8.582;2024-01-27T18:37:22;10.40;;;5.07;;
24557;SDS011;12726;49.148;8.582;2024-01-27T18:40:08;14.23;;;5.55;;
24557;SDS011;12726;49.148;8.582;2024-01-27T18:42:54;10.55;;;5.88;;
24557;SDS011;12726;49.148;8.582;2024-01-27T18:45:40;11.10;;;4.78;;
24557;SDS011;12726;49.148;8.582;2024-01-27T18:48:28;12.82;;;5.93;;
24557;SDS011;12726;49.148;8.582;2024-01-27T18:51:16;12.32;;;5.32;;
24557;SDS011;12726;49.148;8.582;2024-01-27T18:54:01;10.77;;;5.53;;
24557;SDS011;12726;49.148;8.582;2024-01-27T18:56:47;13.93;;;6.55;;
24557;SDS011;12726;49.148;8.582;2024-01-27T18:59:32;10.10;;;5.55;;
24557;SDS011;12726;49.148;8.582;2024-01-27T19:02:19;8.48;;;5.22;;
24557;SDS011;12726;49.148;8.582;2024-01-27T19:05:04;12.90;;;6.55;;
24557;SDS011;12726;49.148;8.582;2024-01-27T19:07:51;12.93;;;6.97;;
24557;SDS011;12726;49.148;8.582;2024-01-27T19:10:36;15.00;;;7.28;;
24557;SDS011;12726;49.148;8.582;2024-01-27T19:13:22;14.95;;;7.45;;
24557;SDS011;12726;49.148;8.582;2024-01-27T19:16:08;15.68;;;7.35;;
24557;SDS011;12726;49.148;8.582;2024-01-27T19:18:55;11.75;;;6.70;;
24557;SDS011;12726;49.148;8.582;2024-01-27T19:21:40;16.55;;;7.13;;
24557;SDS011;12726;49.148;8.582;2024-01-27T19:24:26;15.05;;;6.38;;
24557;SDS011;12726;49.148;8.582;2024-01-27T19:27:13;13.05;;;7.03;;
24557;SDS011;12726;49.148;8.582;2024-01-27T19:29:58;17.50;;;7.35;;
24557;SDS011;12726;49.148;8.582;2024-01-27T19:32:44;20.92;;;7.70;;